sensor_id;sensor_type;location;lat;lon;timestamp;temperature;humidity
12720;DHT22;6424;48.520;11.228;2023-07-24T00:01:07;19.90;91.00
12720;DHT22;6424;48.520;11.228;2023-07-24T00:03:48;19.90;91.10
12720;DHT22;6424;48.520;11.228;2023-07-24T00:06:28;19.90;91.10
12720;DHT22;6424;48.520;11.228;2023-07-24T00:09:09;19.90;91.30
12720;DHT22;6424;48.520;11.228;2023-07-24T00:11:50;19.90;91.50
12720;DHT22;6424;48.520;11.228;2023-07-24T00:14:16;19.80;91.50
12720;DHT22;6424;48.520;11.228;2023-07-24T00:16:57;19.90;91.70
12720;DHT22;6424;48.520;11.228;2023-07-24T00:19:37;19.80;91.90
12720;DHT22;6424;48.520;11.228;2023-07-24T00:22:18;19.80;92.20
12720;DHT22;6424;48.520;11.228;2023-07-24T00:24:59;19.70;92.40
12720;DHT22;6424;48.520;11.228;2023-07-24T00:27:39;19.70;92.70
12720;DHT22;6424;48.520;11.228;2023-07-24T00:30:20;19.70;93.00
12720;DHT22;6424;48.520;11.228;2023-07-24T00:33:01;19.70;93.30
12720;DHT22;6424;48.520;11.228;2023-07-24T00:35:42;19.60;93.60
12720;DHT22;6424;48.520;11.228;2023-07-24T00:38:23;19.60;93.70
12720;DHT22;6424;48.520;11.228;2023-07-24T00:40:48;19.60;94.00
12720;DHT22;6424;48.520;11.228;2023-07-24T00:43:30;19.50;94.10
12720;DHT22;6424;48.520;11.228;2023-07-24T00:46:11;19.50;94.50
12720;DHT22;6424;48.520;11.228;2023-07-24T00:48:52;19.50;95.00
12720;DHT22;6424;48.520;11.228;2023-07-24T00:51:34;19.40;94.80
12720;DHT22;6424;48.520;11.228;2023-07-24T00:54:16;19.40;94.80
12720;DHT22;6424;48.520;11.228;2023-07-24T00:56:57;19.40;95.10
12720;DHT22;6424;48.520;11.228;2023-07-24T00:59:38;19.30;95.40
12720;DHT22;6424;48.520;11.228;2023-07-24T01:02:19;19.30;96.00
12720;DHT22;6424;48.520;11.228;2023-07-24T01:05:01;19.20;96.60
12720;DHT22;6424;48.520;11.228;2023-07-24T01:07:42;19.20;97.40
12720;DHT22;6424;48.520;11.228;2023-07-24T01:10:23;19.10;97.30
12720;DHT22;6424;48.520;11.228;2023-07-24T01:13:10;19.10;98.30
12720;DHT22;6424;48.520;11.228;2023-07-24T01:15:59;19.10;98.40
12720;DHT22;6424;48.520;11.228;2023-07-24T01:18:41;19.00;99.90
12720;DHT22;6424;48.520;11.228;2023-07-24T01:21:32;19.00;99.90
12720;DHT22;6424;48.520;11.228;2023-07-24T01:24:36;19.00;99.90
12720;DHT22;6424;48.520;11.228;2023-07-24T01:27:24;18.90;99.90
12720;DHT22;6424;48.520;11.228;2023-07-24T01:30:05;18.80;99.90
12720;DHT22;6424;48.520;11.228;2023-07-24T01:32:46;18.80;99.90
12720;DHT22;6424;48.520;11.228;2023-07-24T01:35:27;18.70;99.90
12720;DHT22;6424;48.520;11.228;2023-07-24T01:38:13;18.60;99.90
12720;DHT22;6424;48.520;11.228;2023-07-24T01:40:54;18.50;99.90
12720;DHT22;6424;48.520;11.228;2023-07-24T01:43:35;18.50;99.90
12720;DHT22;6424;48.520;11.228;2023-07-24T01:46:16;18.50;99.90
12720;DHT22;6424;48.520;11.228;2023-07-24T01:48:56;18.50;99.90
12720;DHT22;6424;48.520;11.228;2023-07-24T01:51:37;18.40;99.90
12720;DHT22;6424;48.520;11.228;2023-07-24T01:54:03;18.40;99.90
12720;DHT22;6424;48.520;11.228;2023-07-24T01:56:44;18.40;99.90
12720;DHT22;6424;48.520;11.228;2023-07-24T01:59:24;18.40;99.90
12720;DHT22;6424;48.520;11.228;2023-07-24T02:01:50;18.40;99.90
12720;DHT22;6424;48.520;11.228;2023-07-24T02:04:31;18.40;99.90
12720;DHT22;6424;48.520;11.228;2023-07-24T02:07:12;18.30;99.90
12720;DHT22;6424;48.520;11.228;2023-07-24T02:09:52;18.30;99.90
12720;DHT22;6424;48.520;11.228;2023-07-24T02:12:33;18.10;99.90
12720;DHT22;6424;48.520;11.228;2023-07-24T02:15:14;18.10;99.90
12720;DHT22;6424;48.520;11.228;2023-07-24T02:17:54;18.00;99.90
12720;DHT22;6424;48.520;11.228;2023-07-24T02:20:35;18.00;99.90
12720;DHT22;6424;48.520;11.228;2023-07-24T02:23:16;18.00;99.90
12720;DHT22;6424;48.520;11.228;2023-07-24T02:25:57;17.90;99.90
12720;DHT22;6424;48.520;11.228;2023-07-24T02:28:23;17.90;99.90
12720;DHT22;6424;48.520;11.228;2023-07-24T02:31:03;17.90;99.90
12720;DHT22;6424;48.520;11.228;2023-07-24T02:33:44;17.80;99.90
12720;DHT22;6424;48.520;11.228;2023-07-24T02:36:25;17.90;99.90
12720;DHT22;6424;48.520;11.228;2023-07-24T02:39:05;17.80;99.90
12720;DHT22;6424;48.520;11.228;2023-07-24T02:41:50;17.80;99.90
12720;DHT22;6424;48.520;11.228;2023-07-24T02:44:33;17.70;99.90
12720;DHT22;6424;48.520;11.228;2023-07-24T02:47:14;17.80;99.90
12720;DHT22;6424;48.520;11.228;2023-07-24T02:49:55;17.90;99.90
12720;DHT22;6424;48.520;11.228;2023-07-24T02:52:36;17.90;99.90
12720;DHT22;6424;48.520;11.228;2023-07-24T02:55:16;17.90;99.90
12720;DHT22;6424;48.520;11.228;2023-07-24T02:57:57;17.90;99.90
12720;DHT22;6424;48.520;11.228;2023-07-24T03:00:38;17.90;99.90
12720;DHT22;6424;48.520;11.228;2023-07-24T03:03:19;17.80;99.90
12720;DHT22;6424;48.520;11.228;2023-07-24T03:05:45;17.70;99.90
12720;DHT22;6424;48.520;11.228;2023-07-24T03:08:26;17.50;99.90
12720;DHT22;6424;48.520;11.228;2023-07-24T03:10:52;17.30;99.90
12720;DHT22;6424;48.520;11.228;2023-07-24T03:13:32;17.20;99.90
12720;DHT22;6424;48.520;11.228;2023-07-24T03:16:13;17.20;99.90
12720;DHT22;6424;48.520;11.228;2023-07-24T03:18:54;17.10;99.90
12720;DHT22;6424;48.520;11.228;2023-07-24T03:21:35;17.00;99.90
12720;DHT22;6424;48.520;11.228;2023-07-24T03:24:16;17.00;99.90
12720;DHT22;6424;48.520;11.228;2023-07-24T03:26:57;16.90;99.90
12720;DHT22;6424;48.520;11.228;2023-07-24T03:29:38;16.90;99.90
12720;DHT22;6424;48.520;11.228;2023-07-24T03:32:19;16.80;99.90
12720;DHT22;6424;48.520;11.228;2023-07-24T03:35:00;16.80;99.90
12720;DHT22;6424;48.520;11.228;2023-07-24T03:37:41;16.80;99.90
12720;DHT22;6424;48.520;11.228;2023-07-24T03:40:07;16.80;99.90
12720;DHT22;6424;48.520;11.228;2023-07-24T03:42:48;16.90;99.90
12720;DHT22;6424;48.520;11.228;2023-07-24T03:45:29;16.80;99.90
12720;DHT22;6424;48.520;11.228;2023-07-24T03:48:10;16.70;99.90
12720;DHT22;6424;48.520;11.228;2023-07-24T03:50:58;16.60;99.90
12720;DHT22;6424;48.520;11.228;2023-07-24T03:53:39;16.50;99.90
12720;DHT22;6424;48.520;11.228;2023-07-24T03:56:20;16.60;99.90
12720;DHT22;6424;48.520;11.228;2023-07-24T03:59:00;16.60;99.90
12720;DHT22;6424;48.520;11.228;2023-07-24T04:01:41;16.60;99.90
12720;DHT22;6424;48.520;11.228;2023-07-24T04:04:22;16.60;99.90
12720;DHT22;6424;48.520;11.228;2023-07-24T04:07:03;16.60;99.90
12720;DHT22;6424;48.520;11.228;2023-07-24T04:09:44;16.60;99.90
12720;DHT22;6424;48.520;11.228;2023-07-24T04:12:25;16.70;99.90
12720;DHT22;6424;48.520;11.228;2023-07-24T04:15:06;16.70;99.90
12720;DHT22;6424;48.520;11.228;2023-07-24T04:17:47;16.80;99.90
12720;DHT22;6424;48.520;11.228;2023-07-24T04:20:28;16.80;99.90
12720;DHT22;6424;48.520;11.228;2023-07-24T04:23:08;16.80;99.90
12720;DHT22;6424;48.520;11.228;2023-07-24T04:25:50;16.80;99.90
12720;DHT22;6424;48.520;11.228;2023-07-24T04:28:30;16.80;99.90
12720;DHT22;6424;48.520;11.228;2023-07-24T04:31:11;16.80;99.90
12720;DHT22;6424;48.520;11.228;2023-07-24T04:33:52;16.90;99.90
12720;DHT22;6424;48.520;11.228;2023-07-24T04:36:33;16.90;99.90
12720;DHT22;6424;48.520;11.228;2023-07-24T04:39:13;16.90;99.90
12720;DHT22;6424;48.520;11.228;2023-07-24T04:41:54;17.00;99.90
12720;DHT22;6424;48.520;11.228;2023-07-24T04:44:35;17.00;99.90
12720;DHT22;6424;48.520;11.228;2023-07-24T04:47:16;17.10;99.90
12720;DHT22;6424;48.520;11.228;2023-07-24T04:49:56;17.10;99.90
12720;DHT22;6424;48.520;11.228;2023-07-24T04:52:37;17.20;99.90
12720;DHT22;6424;48.520;11.228;2023-07-24T04:55:03;17.20;99.90
12720;DHT22;6424;48.520;11.228;2023-07-24T04:57:44;17.30;99.90
12720;DHT22;6424;48.520;11.228;2023-07-24T05:00:25;17.30;99.90
12720;DHT22;6424;48.520;11.228;2023-07-24T05:03:07;17.40;99.90
12720;DHT22;6424;48.520;11.228;2023-07-24T05:05:37;17.50;99.90
12720;DHT22;6424;48.520;11.228;2023-07-24T05:08:18;17.70;99.90
12720;DHT22;6424;48.520;11.228;2023-07-24T05:10:59;17.80;99.90
12720;DHT22;6424;48.520;11.228;2023-07-24T05:13:40;18.10;99.90
12720;DHT22;6424;48.520;11.228;2023-07-24T05:16:20;18.40;99.90
12720;DHT22;6424;48.520;11.228;2023-07-24T05:19:01;18.60;99.90
12720;DHT22;6424;48.520;11.228;2023-07-24T05:21:42;18.60;99.90
12720;DHT22;6424;48.520;11.228;2023-07-24T05:24:23;18.80;99.90
12720;DHT22;6424;48.520;11.228;2023-07-24T05:26:48;19.00;99.90
12720;DHT22;6424;48.520;11.228;2023-07-24T05:29:29;19.00;99.90
12720;DHT22;6424;48.520;11.228;2023-07-24T05:32:10;19.10;99.90
12720;DHT22;6424;48.520;11.228;2023-07-24T05:34:50;19.00;99.90
12720;DHT22;6424;48.520;11.228;2023-07-24T05:37:31;19.00;99.90
12720;DHT22;6424;48.520;11.228;2023-07-24T05:40:12;19.00;99.90
12720;DHT22;6424;48.520;11.228;2023-07-24T05:42:53;18.90;99.90
12720;DHT22;6424;48.520;11.228;2023-07-24T05:45:33;19.10;99.90
12720;DHT22;6424;48.520;11.228;2023-07-24T05:48:14;19.60;99.90
12720;DHT22;6424;48.520;11.228;2023-07-24T05:50:55;20.20;99.90
12720;DHT22;6424;48.520;11.228;2023-07-24T05:53:36;20.90;99.90
12720;DHT22;6424;48.520;11.228;2023-07-24T05:56:17;21.50;99.90
12720;DHT22;6424;48.520;11.228;2023-07-24T05:58:57;22.30;99.90
12720;DHT22;6424;48.520;11.228;2023-07-24T06:01:38;23.20;99.90
12720;DHT22;6424;48.520;11.228;2023-07-24T06:04:19;23.50;99.90
12720;DHT22;6424;48.520;11.228;2023-07-24T06:06:59;23.20;99.90
12720;DHT22;6424;48.520;11.228;2023-07-24T06:09:40;22.70;99.90
12720;DHT22;6424;48.520;11.228;2023-07-24T06:12:21;22.00;99.90
12720;DHT22;6424;48.520;11.228;2023-07-24T06:15:02;21.50;99.90
12720;DHT22;6424;48.520;11.228;2023-07-24T06:17:43;21.00;99.90
12720;DHT22;6424;48.520;11.228;2023-07-24T06:20:24;20.60;99.90
12720;DHT22;6424;48.520;11.228;2023-07-24T06:23:05;20.60;99.90
12720;DHT22;6424;48.520;11.228;2023-07-24T06:25:46;20.70;99.90
12720;DHT22;6424;48.520;11.228;2023-07-24T06:28:11;21.10;99.90
12720;DHT22;6424;48.520;11.228;2023-07-24T06:30:52;21.30;99.90
12720;DHT22;6424;48.520;11.228;2023-07-24T06:33:34;21.30;99.90
12720;DHT22;6424;48.520;11.228;2023-07-24T06:36:15;21.20;99.90
12720;DHT22;6424;48.520;11.228;2023-07-24T06:38:56;21.00;99.90
12720;DHT22;6424;48.520;11.228;2023-07-24T06:41:36;20.90;99.90
12720;DHT22;6424;48.520;11.228;2023-07-24T06:44:17;20.80;99.90
12720;DHT22;6424;48.520;11.228;2023-07-24T06:46:58;20.80;99.90
12720;DHT22;6424;48.520;11.228;2023-07-24T06:49:39;20.70;99.90
12720;DHT22;6424;48.520;11.228;2023-07-24T06:52:20;20.70;99.90
12720;DHT22;6424;48.520;11.228;2023-07-24T06:55:00;20.70;99.90
12720;DHT22;6424;48.520;11.228;2023-07-24T06:57:41;20.60;99.90
12720;DHT22;6424;48.520;11.228;2023-07-24T07:00:07;20.40;99.90
12720;DHT22;6424;48.520;11.228;2023-07-24T07:02:52;20.10;99.90
12720;DHT22;6424;48.520;11.228;2023-07-24T07:05:32;19.80;99.90
12720;DHT22;6424;48.520;11.228;2023-07-24T07:08:13;19.30;99.90
12720;DHT22;6424;48.520;11.228;2023-07-24T07:10:58;18.90;99.90
12720;DHT22;6424;48.520;11.228;2023-07-24T07:13:39;18.50;99.90
12720;DHT22;6424;48.520;11.228;2023-07-24T07:16:20;18.20;99.90
12720;DHT22;6424;48.520;11.228;2023-07-24T07:19:01;18.10;99.90
12720;DHT22;6424;48.520;11.228;2023-07-24T07:21:42;17.90;99.90
12720;DHT22;6424;48.520;11.228;2023-07-24T07:24:22;17.80;99.90
12720;DHT22;6424;48.520;11.228;2023-07-24T07:27:03;17.80;99.90
12720;DHT22;6424;48.520;11.228;2023-07-24T07:29:44;17.70;99.90
12720;DHT22;6424;48.520;11.228;2023-07-24T07:32:25;17.70;99.90
12720;DHT22;6424;48.520;11.228;2023-07-24T07:35:07;17.70;99.90
12720;DHT22;6424;48.520;11.228;2023-07-24T07:37:48;17.70;99.90
12720;DHT22;6424;48.520;11.228;2023-07-24T07:40:29;17.70;99.90
12720;DHT22;6424;48.520;11.228;2023-07-24T07:43:10;17.70;99.90
12720;DHT22;6424;48.520;11.228;2023-07-24T07:45:51;17.70;99.90
12720;DHT22;6424;48.520;11.228;2023-07-24T07:48:31;17.60;99.90
12720;DHT22;6424;48.520;11.228;2023-07-24T07:51:13;17.60;99.90
12720;DHT22;6424;48.520;11.228;2023-07-24T07:53:54;17.60;99.90
12720;DHT22;6424;48.520;11.228;2023-07-24T07:56:34;17.50;99.90
12720;DHT22;6424;48.520;11.228;2023-07-24T07:59:15;17.50;99.90
12720;DHT22;6424;48.520;11.228;2023-07-24T08:01:56;17.40;99.90
12720;DHT22;6424;48.520;11.228;2023-07-24T08:04:37;17.50;99.90
12720;DHT22;6424;48.520;11.228;2023-07-24T08:07:17;17.40;99.90
12720;DHT22;6424;48.520;11.228;2023-07-24T08:09:58;17.50;99.90
12720;DHT22;6424;48.520;11.228;2023-07-24T08:12:39;17.50;99.90
12720;DHT22;6424;48.520;11.228;2023-07-24T08:15:20;17.50;99.90
12720;DHT22;6424;48.520;11.228;2023-07-24T08:18:01;17.50;99.90
12720;DHT22;6424;48.520;11.228;2023-07-24T08:20:41;17.60;99.90
12720;DHT22;6424;48.520;11.228;2023-07-24T08:23:07;17.60;99.90
12720;DHT22;6424;48.520;11.228;2023-07-24T08:25:55;17.60;99.90
12720;DHT22;6424;48.520;11.228;2023-07-24T08:28:36;17.70;99.90
12720;DHT22;6424;48.520;11.228;2023-07-24T08:31:16;17.80;99.90
12720;DHT22;6424;48.520;11.228;2023-07-24T08:33:57;17.80;99.90
12720;DHT22;6424;48.520;11.228;2023-07-24T08:36:38;17.90;99.90
12720;DHT22;6424;48.520;11.228;2023-07-24T08:39:19;18.00;99.90
12720;DHT22;6424;48.520;11.228;2023-07-24T08:41:59;18.10;99.90
12720;DHT22;6424;48.520;11.228;2023-07-24T08:44:41;18.20;99.90
12720;DHT22;6424;48.520;11.228;2023-07-24T08:47:23;18.30;99.90
12720;DHT22;6424;48.520;11.228;2023-07-24T08:49:50;18.40;99.90
12720;DHT22;6424;48.520;11.228;2023-07-24T08:52:31;18.60;99.90
12720;DHT22;6424;48.520;11.228;2023-07-24T08:55:13;18.80;99.90
12720;DHT22;6424;48.520;11.228;2023-07-24T08:57:54;19.10;99.90
12720;DHT22;6424;48.520;11.228;2023-07-24T09:00:35;19.30;99.90
12720;DHT22;6424;48.520;11.228;2023-07-24T09:03:17;19.60;99.90
12720;DHT22;6424;48.520;11.228;2023-07-24T09:05:58;19.90;99.90
12720;DHT22;6424;48.520;11.228;2023-07-24T09:08:43;20.20;99.90
12720;DHT22;6424;48.520;11.228;2023-07-24T09:11:24;20.50;99.90
12720;DHT22;6424;48.520;11.228;2023-07-24T09:14:05;20.80;99.90
12720;DHT22;6424;48.520;11.228;2023-07-24T09:16:45;21.00;99.90
12720;DHT22;6424;48.520;11.228;2023-07-24T09:19:26;21.30;99.90
12720;DHT22;6424;48.520;11.228;2023-07-24T09:22:12;21.60;99.90
12720;DHT22;6424;48.520;11.228;2023-07-24T09:24:50;21.80;99.90
12720;DHT22;6424;48.520;11.228;2023-07-24T09:27:31;21.80;99.90
12720;DHT22;6424;48.520;11.228;2023-07-24T09:30:13;21.90;99.90
12720;DHT22;6424;48.520;11.228;2023-07-24T09:32:57;22.00;99.90
12720;DHT22;6424;48.520;11.228;2023-07-24T09:35:38;22.20;99.90
12720;DHT22;6424;48.520;11.228;2023-07-24T09:38:19;22.20;99.90
12720;DHT22;6424;48.520;11.228;2023-07-24T09:40:46;22.10;99.90
12720;DHT22;6424;48.520;11.228;2023-07-24T09:43:33;22.00;99.90
12720;DHT22;6424;48.520;11.228;2023-07-24T09:46:16;21.90;99.90
12720;DHT22;6424;48.520;11.228;2023-07-24T09:48:57;21.80;99.90
12720;DHT22;6424;48.520;11.228;2023-07-24T09:51:38;21.60;99.90
12720;DHT22;6424;48.520;11.228;2023-07-24T09:54:26;21.50;99.90
12720;DHT22;6424;48.520;11.228;2023-07-24T09:57:09;21.40;99.90
12720;DHT22;6424;48.520;11.228;2023-07-24T09:59:35;21.30;99.90
12720;DHT22;6424;48.520;11.228;2023-07-24T10:02:17;21.30;99.90
12720;DHT22;6424;48.520;11.228;2023-07-24T10:04:59;21.30;99.90
12720;DHT22;6424;48.520;11.228;2023-07-24T10:07:40;21.30;99.90
12720;DHT22;6424;48.520;11.228;2023-07-24T10:10:07;21.30;99.90
12720;DHT22;6424;48.520;11.228;2023-07-24T10:12:49;21.30;99.90
12720;DHT22;6424;48.520;11.228;2023-07-24T10:15:30;21.40;99.90
12720;DHT22;6424;48.520;11.228;2023-07-24T10:18:11;21.50;99.90
12720;DHT22;6424;48.520;11.228;2023-07-24T10:20:40;21.70;99.90
12720;DHT22;6424;48.520;11.228;2023-07-24T10:23:22;21.80;99.90
12720;DHT22;6424;48.520;11.228;2023-07-24T10:26:06;22.00;99.90
12720;DHT22;6424;48.520;11.228;2023-07-24T10:28:48;22.10;99.90
12720;DHT22;6424;48.520;11.228;2023-07-24T10:31:29;22.20;99.90
12720;DHT22;6424;48.520;11.228;2023-07-24T10:34:11;22.30;99.90
12720;DHT22;6424;48.520;11.228;2023-07-24T10:36:37;22.40;99.90
12720;DHT22;6424;48.520;11.228;2023-07-24T10:39:19;22.50;99.90
12720;DHT22;6424;48.520;11.228;2023-07-24T10:42:06;22.60;99.90
12720;DHT22;6424;48.520;11.228;2023-07-24T10:44:47;22.70;99.90
12720;DHT22;6424;48.520;11.228;2023-07-24T10:47:28;22.70;99.90
12720;DHT22;6424;48.520;11.228;2023-07-24T10:50:08;22.80;99.90
12720;DHT22;6424;48.520;11.228;2023-07-24T10:52:49;22.70;99.90
12720;DHT22;6424;48.520;11.228;2023-07-24T10:55:30;22.70;99.90
12720;DHT22;6424;48.520;11.228;2023-07-24T10:58:12;22.70;99.90
12720;DHT22;6424;48.520;11.228;2023-07-24T11:00:53;22.70;99.90
12720;DHT22;6424;48.520;11.228;2023-07-24T11:03:37;22.70;99.90
12720;DHT22;6424;48.520;11.228;2023-07-24T11:06:19;22.70;99.90
12720;DHT22;6424;48.520;11.228;2023-07-24T11:09:00;22.80;99.90
12720;DHT22;6424;48.520;11.228;2023-07-24T11:11:41;22.90;99.90
12720;DHT22;6424;48.520;11.228;2023-07-24T11:14:13;22.90;99.90
12720;DHT22;6424;48.520;11.228;2023-07-24T11:16:55;22.90;99.90
12720;DHT22;6424;48.520;11.228;2023-07-24T11:19:24;22.80;99.90
12720;DHT22;6424;48.520;11.228;2023-07-24T11:22:06;22.80;99.90
12720;DHT22;6424;48.520;11.228;2023-07-24T11:24:47;23.10;99.90
12720;DHT22;6424;48.520;11.228;2023-07-24T11:27:28;23.30;99.90
12720;DHT22;6424;48.520;11.228;2023-07-24T11:30:11;23.50;99.90
12720;DHT22;6424;48.520;11.228;2023-07-24T11:32:52;23.60;99.90
12720;DHT22;6424;48.520;11.228;2023-07-24T11:35:34;23.80;99.90
12720;DHT22;6424;48.520;11.228;2023-07-24T11:38:16;24.20;99.90
12720;DHT22;6424;48.520;11.228;2023-07-24T11:40:57;24.50;99.90
12720;DHT22;6424;48.520;11.228;2023-07-24T11:43:48;24.70;99.90
12720;DHT22;6424;48.520;11.228;2023-07-24T11:46:30;24.90;99.90
12720;DHT22;6424;48.520;11.228;2023-07-24T11:49:14;24.90;99.90
12720;DHT22;6424;48.520;11.228;2023-07-24T11:52:05;24.80;99.90
12720;DHT22;6424;48.520;11.228;2023-07-24T11:54:56;24.50;99.90
12720;DHT22;6424;48.520;11.228;2023-07-24T11:57:41;24.20;99.90
12720;DHT22;6424;48.520;11.228;2023-07-24T12:00:22;23.90;99.90
12720;DHT22;6424;48.520;11.228;2023-07-24T12:03:03;23.50;99.90
12720;DHT22;6424;48.520;11.228;2023-07-24T12:05:45;23.30;99.90
12720;DHT22;6424;48.520;11.228;2023-07-24T12:08:34;23.00;99.90
12720;DHT22;6424;48.520;11.228;2023-07-24T12:11:18;22.70;99.90
12720;DHT22;6424;48.520;11.228;2023-07-24T12:13:59;22.40;99.90
12720;DHT22;6424;48.520;11.228;2023-07-24T12:16:40;22.20;99.90
12720;DHT22;6424;48.520;11.228;2023-07-24T12:19:20;21.90;99.90
12720;DHT22;6424;48.520;11.228;2023-07-24T12:22:01;21.60;99.90
12720;DHT22;6424;48.520;11.228;2023-07-24T12:24:44;21.20;99.90
12720;DHT22;6424;48.520;11.228;2023-07-24T12:27:24;20.70;99.90
12720;DHT22;6424;48.520;11.228;2023-07-24T12:30:06;20.30;99.90
12720;DHT22;6424;48.520;11.228;2023-07-24T12:32:47;19.90;99.90
12720;DHT22;6424;48.520;11.228;2023-07-24T12:35:27;19.70;99.90
12720;DHT22;6424;48.520;11.228;2023-07-24T12:38:08;19.60;99.90
12720;DHT22;6424;48.520;11.228;2023-07-24T12:40:49;19.50;99.90
12720;DHT22;6424;48.520;11.228;2023-07-24T12:43:30;19.50;99.90
12720;DHT22;6424;48.520;11.228;2023-07-24T12:46:11;19.50;99.90
12720;DHT22;6424;48.520;11.228;2023-07-24T12:48:37;19.50;99.90
12720;DHT22;6424;48.520;11.228;2023-07-24T12:51:17;19.60;99.90
12720;DHT22;6424;48.520;11.228;2023-07-24T12:53:58;19.50;99.90
12720;DHT22;6424;48.520;11.228;2023-07-24T12:56:39;19.60;99.90
12720;DHT22;6424;48.520;11.228;2023-07-24T12:59:20;19.60;99.90
12720;DHT22;6424;48.520;11.228;2023-07-24T13:01:46;19.60;99.90
12720;DHT22;6424;48.520;11.228;2023-07-24T13:04:27;19.60;99.90
12720;DHT22;6424;48.520;11.228;2023-07-24T13:06:53;19.70;99.90
12720;DHT22;6424;48.520;11.228;2023-07-24T13:09:34;19.90;99.90
12720;DHT22;6424;48.520;11.228;2023-07-24T13:12:14;20.10;99.90
12720;DHT22;6424;48.520;11.228;2023-07-24T13:14:55;20.20;99.90
12720;DHT22;6424;48.520;11.228;2023-07-24T13:17:36;20.50;99.90
12720;DHT22;6424;48.520;11.228;2023-07-24T13:20:17;20.60;99.90
12720;DHT22;6424;48.520;11.228;2023-07-24T13:22:58;20.80;99.90
12720;DHT22;6424;48.520;11.228;2023-07-24T13:25:39;20.90;99.90
12720;DHT22;6424;48.520;11.228;2023-07-24T13:28:20;21.00;99.90
12720;DHT22;6424;48.520;11.228;2023-07-24T13:31:20;21.20;99.90
12720;DHT22;6424;48.520;11.228;2023-07-24T13:34:01;21.30;99.90
12720;DHT22;6424;48.520;11.228;2023-07-24T13:36:42;21.50;99.90
12720;DHT22;6424;48.520;11.228;2023-07-24T13:39:23;21.60;99.90
12720;DHT22;6424;48.520;11.228;2023-07-24T13:42:04;21.80;99.90
12720;DHT22;6424;48.520;11.228;2023-07-24T13:44:45;21.80;99.90
12720;DHT22;6424;48.520;11.228;2023-07-24T13:47:26;21.80;99.90
12720;DHT22;6424;48.520;11.228;2023-07-24T13:50:07;22.00;99.90
12720;DHT22;6424;48.520;11.228;2023-07-24T13:52:48;22.10;99.90
12720;DHT22;6424;48.520;11.228;2023-07-24T13:55:28;22.20;99.90
12720;DHT22;6424;48.520;11.228;2023-07-24T13:57:54;22.30;99.90
12720;DHT22;6424;48.520;11.228;2023-07-24T14:00:35;22.40;99.90
12720;DHT22;6424;48.520;11.228;2023-07-24T14:03:16;22.40;99.90
12720;DHT22;6424;48.520;11.228;2023-07-24T14:05:56;22.40;99.90
12720;DHT22;6424;48.520;11.228;2023-07-24T14:08:38;22.40;99.90
12720;DHT22;6424;48.520;11.228;2023-07-24T14:11:18;22.40;99.90
12720;DHT22;6424;48.520;11.228;2023-07-24T14:13:59;22.50;99.90
12720;DHT22;6424;48.520;11.228;2023-07-24T14:16:40;22.50;99.90
12720;DHT22;6424;48.520;11.228;2023-07-24T14:19:21;22.50;99.90
12720;DHT22;6424;48.520;11.228;2023-07-24T14:22:04;22.40;99.90
12720;DHT22;6424;48.520;11.228;2023-07-24T14:24:44;22.50;99.90
12720;DHT22;6424;48.520;11.228;2023-07-24T14:27:27;22.70;99.90
12720;DHT22;6424;48.520;11.228;2023-07-24T14:30:09;22.80;99.90
12720;DHT22;6424;48.520;11.228;2023-07-24T14:32:50;22.80;99.90
12720;DHT22;6424;48.520;11.228;2023-07-24T14:35:16;22.80;99.90
12720;DHT22;6424;48.520;11.228;2023-07-24T14:37:57;22.80;99.90
12720;DHT22;6424;48.520;11.228;2023-07-24T14:40:37;22.70;99.90
12720;DHT22;6424;48.520;11.228;2023-07-24T14:43:20;22.80;99.90
12720;DHT22;6424;48.520;11.228;2023-07-24T14:46:00;23.00;99.90
12720;DHT22;6424;48.520;11.228;2023-07-24T14:48:41;23.10;99.90
12720;DHT22;6424;48.520;11.228;2023-07-24T14:51:23;23.30;99.90
12720;DHT22;6424;48.520;11.228;2023-07-24T14:53:50;23.20;99.90
12720;DHT22;6424;48.520;11.228;2023-07-24T14:56:16;23.10;99.90
12720;DHT22;6424;48.520;11.228;2023-07-24T14:58:57;22.90;99.90
12720;DHT22;6424;48.520;11.228;2023-07-24T15:01:37;22.70;99.90
12720;DHT22;6424;48.520;11.228;2023-07-24T15:04:18;22.60;99.90
12720;DHT22;6424;48.520;11.228;2023-07-24T15:06:59;22.50;99.90
12720;DHT22;6424;48.520;11.228;2023-07-24T15:09:41;22.40;99.90
12720;DHT22;6424;48.520;11.228;2023-07-24T15:12:22;22.20;99.90
12720;DHT22;6424;48.520;11.228;2023-07-24T15:15:04;22.20;99.90
12720;DHT22;6424;48.520;11.228;2023-07-24T15:17:44;22.10;99.90
12720;DHT22;6424;48.520;11.228;2023-07-24T15:20:10;21.90;99.90
12720;DHT22;6424;48.520;11.228;2023-07-24T15:22:53;21.80;99.90
12720;DHT22;6424;48.520;11.228;2023-07-24T15:25:34;21.70;99.90
12720;DHT22;6424;48.520;11.228;2023-07-24T15:28:15;21.50;99.90
12720;DHT22;6424;48.520;11.228;2023-07-24T15:30:56;21.40;99.90
12720;DHT22;6424;48.520;11.228;2023-07-24T15:33:37;21.20;99.90
12720;DHT22;6424;48.520;11.228;2023-07-24T15:36:03;21.10;99.90
12720;DHT22;6424;48.520;11.228;2023-07-24T15:38:43;20.90;99.90
12720;DHT22;6424;48.520;11.228;2023-07-24T15:41:24;20.80;99.90
12720;DHT22;6424;48.520;11.228;2023-07-24T15:44:05;20.70;99.90
12720;DHT22;6424;48.520;11.228;2023-07-24T15:46:47;20.60;99.90
12720;DHT22;6424;48.520;11.228;2023-07-24T15:49:28;20.40;99.90
12720;DHT22;6424;48.520;11.228;2023-07-24T15:52:08;20.20;99.90
12720;DHT22;6424;48.520;11.228;2023-07-24T15:54:52;20.00;99.90
12720;DHT22;6424;48.520;11.228;2023-07-24T15:57:34;19.80;99.90
12720;DHT22;6424;48.520;11.228;2023-07-24T16:00:00;19.70;99.90
12720;DHT22;6424;48.520;11.228;2023-07-24T16:02:40;19.60;99.90
12720;DHT22;6424;48.520;11.228;2023-07-24T16:05:22;19.60;99.90
12720;DHT22;6424;48.520;11.228;2023-07-24T16:08:03;19.40;99.90
12720;DHT22;6424;48.520;11.228;2023-07-24T16:10:44;19.40;99.90
12720;DHT22;6424;48.520;11.228;2023-07-24T16:13:09;19.30;99.90
12720;DHT22;6424;48.520;11.228;2023-07-24T16:15:50;19.20;99.90
12720;DHT22;6424;48.520;11.228;2023-07-24T16:18:31;19.20;99.90
12720;DHT22;6424;48.520;11.228;2023-07-24T16:21:12;19.10;99.90
12720;DHT22;6424;48.520;11.228;2023-07-24T16:23:53;19.00;99.90
12720;DHT22;6424;48.520;11.228;2023-07-24T16:26:34;19.00;99.90
12720;DHT22;6424;48.520;11.228;2023-07-24T16:29:16;18.90;99.90
12720;DHT22;6424;48.520;11.228;2023-07-24T16:31:56;18.80;99.90
12720;DHT22;6424;48.520;11.228;2023-07-24T16:34:37;18.70;99.90
12720;DHT22;6424;48.520;11.228;2023-07-24T16:37:03;18.70;99.90
12720;DHT22;6424;48.520;11.228;2023-07-24T16:39:45;18.70;99.90
12720;DHT22;6424;48.520;11.228;2023-07-24T16:42:26;18.70;99.90
12720;DHT22;6424;48.520;11.228;2023-07-24T16:45:07;18.70;99.90
12720;DHT22;6424;48.520;11.228;2023-07-24T16:47:47;18.80;99.90
12720;DHT22;6424;48.520;11.228;2023-07-24T16:50:28;18.80;99.90